»·PEaware :: N55NT KSNA-KSBP

N55NT :: KSNA-KSBP

FLIGHT INFORMATION

Flight Status: Arrived
Operator: Privately registered:
United States
More flights under this callsign
Pilot: Craig H. (6968)
Aircraft: SOCATA TBM-900
(TBM9)
More flights by this aircraft type
Origin: KSNA John Wayne-Orange Co
United States
Destination: KSBP San Luis Co Regl
United States
More flights between these airports :: More routes between these airports
Route: +CHANL3 SXC V208 VTU RZS MQO
File this flight plan on PilotEdge
Remarks:
Altitude:
(Current/Filed)
16,000ft
Speed:
(Current/Filed)
330kts
Departed: 24-Jul-20 07:21 AM
Arrived: 24-Jul-20 08:10 AM
Distance/Time
Traveled:
166nm/0:49
Distance/Time
To Go:
Arrived

Flight Plot

Page will automatically refresh every two minutes.

Flight plan parsing failed; only flown route is shown


Map Options




Map Legend


Flown Route
Filed Route
Departure Airport
Arrival Airport
Navaid (VOR, NDB)
Fix

Horizontal Profiles

Position Reports

Time Latitude Longitude Heading Altitude Ground
Speed
24-Jul-20 06:56 33.666050 -117.873032 41 59ft 0kts
24-Jul-20 06:57 33.666050 -117.873032 41 59ft 0kts
24-Jul-20 06:58 33.666050 -117.873032 41 59ft 0kts
24-Jul-20 06:59 33.666050 -117.873031 41 59ft 0kts
24-Jul-20 07:00 33.666050 -117.873031 41 59ft 0kts
24-Jul-20 07:01 33.666050 -117.873031 41 59ft 0kts
24-Jul-20 07:02 33.666050 -117.873031 41 59ft 0kts
24-Jul-20 07:03 33.666050 -117.873031 41 59ft 0kts
24-Jul-20 07:04 33.666050 -117.873031 41 59ft 0kts
24-Jul-20 07:05 33.666050 -117.873031 41 59ft 0kts
24-Jul-20 07:06 33.666050 -117.873031 41 59ft 0kts
24-Jul-20 07:07 33.666050 -117.873031 41 59ft 0kts
24-Jul-20 07:08 33.666050 -117.873031 41 59ft 0kts
24-Jul-20 07:09 33.666050 -117.873031 41 59ft 0kts
24-Jul-20 07:10 33.666050 -117.873031 41 59ft 0kts
24-Jul-20 07:11 33.666050 -117.873031 41 59ft 0kts
24-Jul-20 07:12 33.666171 -117.873008 330 59ft 2kts
24-Jul-20 07:13 33.666511 -117.873313 359 59ft 7kts
24-Jul-20 07:14 33.668432 -117.874731 337 59ft 11kts
24-Jul-20 07:15 33.671625 -117.872902 27 59ft 13kts
24-Jul-20 07:16 33.675695 -117.870336 27 59ft 17kts
24-Jul-20 07:17 33.679658 -117.867955 13 59ft 15kts
24-Jul-20 07:18 33.681235 -117.866522 108 59ft 0kts
24-Jul-20 07:19 33.681150 -117.866249 112 59ft 9kts
24-Jul-20 07:20 33.669755 -117.872590 205 493ft 113kts
24-Jul-20 07:21 33.635103 -117.887839 186 2585ft 146kts
24-Jul-20 07:22 33.596936 -117.899605 234 4938ft 152kts
24-Jul-20 07:23 33.581131 -117.947508 245 6972ft 168kts
24-Jul-20 07:24 33.559986 -118.013536 245 6986ft 238kts
24-Jul-20 07:25 33.531058 -118.087125 243 6978ft 247kts
24-Jul-20 07:26 33.507187 -118.148891 243 9676ft 175kts
24-Jul-20 07:27 33.488677 -118.199420 245 12127ft 169kts
24-Jul-20 07:28 33.514257 -118.248419 308 14335ft 189kts
24-Jul-20 07:29 33.550709 -118.296361 307 16013ft 219kts
24-Jul-20 07:30 33.598109 -118.359000 308 15989ft 274kts
24-Jul-20 07:31 33.650735 -118.428659 308 15991ft 284kts
24-Jul-20 07:32 33.704136 -118.499505 308 15999ft 287kts
24-Jul-20 07:33 33.757771 -118.570806 308 16002ft 287kts
24-Jul-20 07:34 33.811281 -118.642085 308 16002ft 288kts
24-Jul-20 07:35 33.864928 -118.713688 308 16004ft 288kts
24-Jul-20 07:36 33.918520 -118.785367 308 16004ft 288kts
24-Jul-20 07:37 33.971826 -118.856807 308 16004ft 285kts
24-Jul-20 07:38 34.023866 -118.926740 308 16002ft 276kts
24-Jul-20 07:39 34.074481 -118.994884 310 16000ft 269kts
24-Jul-20 07:40 34.123687 -119.062226 309 15995ft 266kts
24-Jul-20 07:41 34.170556 -119.131060 309 15984ft 265kts
24-Jul-20 07:42 34.210601 -119.205278 304 15982ft 264kts
24-Jul-20 07:43 34.250727 -119.280057 303 15975ft 265kts
24-Jul-20 07:44 34.290457 -119.354959 303 15974ft 265kts
24-Jul-20 07:45 34.330139 -119.429954 303 15974ft 264kts
24-Jul-20 07:46 34.369739 -119.504958 303 15974ft 264kts
24-Jul-20 07:47 34.409373 -119.580181 303 15973ft 264kts
24-Jul-20 07:48 34.448963 -119.655483 302 15974ft 263kts
24-Jul-20 07:49 34.488294 -119.730446 302 15975ft 263kts
24-Jul-20 07:50 34.532278 -119.800877 312 15842ft 268kts
24-Jul-20 07:51 34.584893 -119.870023 312 14696ft 286kts
24-Jul-20 07:52 34.639188 -119.941536 312 13493ft 288kts
24-Jul-20 07:53 34.692106 -120.011381 312 12283ft 276kts
24-Jul-20 07:54 34.743144 -120.078858 312 11074ft 268kts
24-Jul-20 07:55 34.793225 -120.145223 312 10002ft 256kts
24-Jul-20 07:56 34.837387 -120.203857 312 9793ft 233kts
24-Jul-20 07:57 34.881432 -120.262439 312 8283ft 221kts
24-Jul-20 07:58 34.922333 -120.311460 331 7997ft 200kts
24-Jul-20 07:59 34.974370 -120.344431 332 6788ft 219kts
24-Jul-20 08:00 35.027472 -120.377894 332 5399ft 211kts
24-Jul-20 08:01 35.079258 -120.409829 331 4581ft 205kts
24-Jul-20 08:02 35.122420 -120.440011 306 4002ft 154kts
24-Jul-20 08:03 35.146938 -120.482599 303 3397ft 142kts
24-Jul-20 08:04 35.168995 -120.519641 297 2704ft 128kts
24-Jul-20 08:05 35.188202 -120.554808 304 1996ft 118kts
24-Jul-20 08:06 35.206207 -120.586358 304 1365ft 101kts
24-Jul-20 08:07 35.221787 -120.613826 303 724ft 96kts
24-Jul-20 08:08 35.236142 -120.638925 304 215ft 64kts
24-Jul-20 08:09 35.239576 -120.643066 127 215ft 13kts
24-Jul-20 08:10 35.238555 -120.639528 61 215ft 7kts
24-Jul-20 08:11 35.238749 -120.639052 266 215ft 0kts
24-Jul-20 08:12 35.238749 -120.639052 266 215ft 0kts

Navigation Log

Ident Type
Flight plan parsing failed, navigation log unavailable